Nassau, Bahamas

9:12 PM EDT on August 22, 2017 (GMT -0400)
Old Fort Bay | | Change Station

Elev 13 ft 25.04 °N, 77.50 °W | Updated 13 minutes ago

Mostly Cloudy
Mostly Cloudy
83.8 °F
Feels Like 93 °F
N
0.6
Wind Variable Wind from East
Gusts 3.1 mph

Today
High -- | Low -- °F
--% Chance of Precip.
Yesterday
High -- | Low -- °F
Precip. -- in
Pressure 30.00 in
Visibility 6.2 miles
Clouds Few 1500 ft
Scattered Clouds 3500 ft
Mostly Cloudy 22000 ft
Heat Index 93 °F
Dew Point 77 °F
Humidity 80%
Rainfall 0.43 in
Snow Depth Not available.
6:46 AM 7:38 PM
New Moon, 2% visible
METAR MYNN 230100Z 11007KT 9999 FEW015CB SCT035 BKN220 30/25 A3000 RMK CB SW--NW
Pressure 30.00 in
Visibility 6.2 miles
Clouds Few 1500 ft
Scattered Clouds 3500 ft
Mostly Cloudy 22000 ft
Heat Index 93 °F
Dew Point 77 °F
Humidity 80%
Rainfall 0.43 in
Snow Depth Not available.
6:46 AM 7:38 PM
New Moon, 2% visible
METAR MYNN 230100Z 11007KT 9999 FEW015CB SCT035 BKN220 30/25 A3000 RMK CB SW--NW

Get Severe Weather Alerts

Thanks for signing up!

Be on the lookout for a verification email in your inbox.

You'll start receiving the daily forecast at 6 AM.

×

10-Day Weather Forecast

No radar image for this location.
×

Almanac

Astronomy

Aug. 22, 2017 Rise Set
Actual Time
Civil Twilight
Nautical Twilight
Astronomical Twilight
Moon
Length of Visible Light
Length of Day
Tomorrow will be .
, % of the Moon is Illuminated

Today's Extremes

Country Highs Country Lows

Community

WunderPhotos

Category 6

Welcome to Category 6. This is the collective home for Weather Underground's featured writeups by Dr. Jeff Masters (right), Bob Henson (left), Chris Burt, and other regular contributors.

Nearby

Air Quality

  Air Quality AQ Index Pollutant
Not available.

Snow Depth

Station Depth Elevation

Earthquake Activity

City Distance Mag. Time & Date
Minimum magnitude displayed is 2.5.

Coastal Water Temperatures

Place Temperature

Stations

Nearby Weather Stations

Station Location Temp. Windchill Dew Point Humidity Wind Precip. Elev Updated Type